createdAt,value
2018-12-03T00:00:06.753Z,13.75
2018-12-03T00:01:06.506Z,13.77
2018-12-03T00:02:06.782Z,13.65
2018-12-03T00:03:06.825Z,13.68
2018-12-03T00:04:06.828Z,13.67
2018-12-03T00:05:07.144Z,13.75
2018-12-03T00:06:06.889Z,13.71
2018-12-03T00:07:06.884Z,13.68
2018-12-03T00:08:06.923Z,13.7
2018-12-03T00:09:06.929Z,13.68
2018-12-03T00:10:07.234Z,13.7
2018-12-03T00:11:07.224Z,13.74
2018-12-03T00:12:07.251Z,13.67
2018-12-03T00:13:07.284Z,13.68
2018-12-03T00:14:07.044Z,13.72
2018-12-03T00:15:07.324Z,13.71
2018-12-03T00:16:07.076Z,13.72
2018-12-03T00:17:07.101Z,13.71
2018-12-03T00:18:07.133Z,13.68
2018-12-03T00:19:07.167Z,13.71
2018-12-03T00:20:07.165Z,13.78
2018-12-03T00:21:07.438Z,13.72
2018-12-03T00:22:06.950Z,13.72
2018-12-03T00:23:07.267Z,13.74
2018-12-03T00:24:07.255Z,13.7
2018-12-03T00:25:07.276Z,13.72
2018-12-03T00:26:07.047Z,13.71
2018-12-03T00:27:07.307Z,13.71
2018-12-03T00:28:07.339Z,13.7
2018-12-03T00:29:07.358Z,13.72
2018-12-03T00:30:07.117Z,13.7
2018-12-03T00:31:07.678Z,13.6
2018-12-03T00:32:07.168Z,13.67
2018-12-03T00:33:07.450Z,13.71
2018-12-03T00:34:07.464Z,13.67
2018-12-03T00:35:07.750Z,13.71
2018-12-03T00:36:07.249Z,13.71
2018-12-03T00:37:07.525Z,13.65
2018-12-03T00:38:07.875Z,13.72
2018-12-03T00:39:07.307Z,13.71
2018-12-03T00:40:07.596Z,13.75
2018-12-03T00:41:07.617Z,13.72
2018-12-03T00:42:07.375Z,13.71
2018-12-03T00:43:07.665Z,13.68
2018-12-03T00:44:07.673Z,13.68
2018-12-03T00:45:07.714Z,13.71
2018-12-03T00:46:07.462Z,13.67
2018-12-03T00:47:07.996Z,13.68
2018-12-03T00:48:07.758Z,13.71
2018-12-03T00:49:07.521Z,13.7
2018-12-03T00:50:07.854Z,13.65
2018-12-03T00:51:07.566Z,13.72
2018-12-03T00:52:07.857Z,13.65
2018-12-03T00:53:07.876Z,13.67
2018-12-03T00:54:07.636Z,13.71
2018-12-03T00:55:07.915Z,13.67
2018-12-03T00:56:08.220Z,13.71
2018-12-03T00:57:07.960Z,13.7
2018-12-03T00:58:07.975Z,13.71
2018-12-03T00:59:07.737Z,13.65
2018-12-03T01:00:08.019Z,13.68
2018-12-03T01:01:08.328Z,13.72
2018-12-03T01:02:07.812Z,13.71
2018-12-03T01:03:08.076Z,13.63
2018-12-03T01:04:08.369Z,13.65
2018-12-03T01:05:08.121Z,13.7
2018-12-03T01:06:08.158Z,13.74
2018-12-03T01:07:08.175Z,13.68
2018-12-03T01:08:08.457Z,13.65
2018-12-03T01:09:08.463Z,13.7
2018-12-03T01:10:08.229Z,13.68
2018-12-03T01:11:07.994Z,13.68
2018-12-03T01:12:08.275Z,13.67
2018-12-03T01:13:08.561Z,13.63
2018-12-03T01:14:08.662Z,13.71
2018-12-03T01:15:08.596Z,13.7
2018-12-03T01:16:08.384Z,13.68
2018-12-03T01:17:08.375Z,13.6
2018-12-03T01:18:08.406Z,13.65
2018-12-03T01:19:08.424Z,13.72
2018-12-03T01:20:08.196Z,13.62
2018-12-03T01:21:08.466Z,13.67
2018-12-03T01:22:08.759Z,13.68
2018-12-03T01:23:08.777Z,13.57
2018-12-03T01:24:08.270Z,13.68
2018-12-03T01:25:08.298Z,13.65
2018-12-03T01:26:08.573Z,13.68
2018-12-03T01:27:08.333Z,13.68
2018-12-03T01:28:08.353Z,13.68
2018-12-03T01:29:08.907Z,13.71
2018-12-03T01:30:08.658Z,13.62
2018-12-03T01:31:08.939Z,13.68
2018-12-03T01:32:08.453Z,13.68
2018-12-03T01:33:08.981Z,13.7
2018-12-03T01:34:08.479Z,13.67
2018-12-03T01:35:08.766Z,13.67
2018-12-03T01:36:09.055Z,13.68
2018-12-03T01:37:09.068Z,13.68
2018-12-03T01:38:08.639Z,13.71
2018-12-03T01:39:08.593Z,13.67
2018-12-03T01:40:08.881Z,13.7
2018-12-03T01:41:08.896Z,13.65
2018-12-03T01:42:08.661Z,13.68
2018-12-03T01:43:08.677Z,13.68
2018-12-03T01:44:08.705Z,13.68
2018-12-03T01:45:08.978Z,13.68
2018-12-03T01:46:09.000Z,13.71
2018-12-03T01:47:09.036Z,13.6
2018-12-03T01:48:09.040Z,13.62
2018-12-03T01:49:08.815Z,13.67
2018-12-03T01:50:08.824Z,13.7
2018-12-03T01:51:09.125Z,13.68
2018-12-03T01:52:09.409Z,13.62
2018-12-03T01:53:08.896Z,13.68
2018-12-03T01:54:09.171Z,13.68
2018-12-03T01:55:08.935Z,13.63
2018-12-03T01:56:09.217Z,13.7
2018-12-03T01:57:09.514Z,13.68
2018-12-03T01:58:09.256Z,13.67
2018-12-03T01:59:09.024Z,13.7
2018-12-03T02:00:09.051Z,13.65
2018-12-03T02:01:09.329Z,13.68
2018-12-03T02:02:09.596Z,13.72
2018-12-03T02:03:09.373Z,13.68
2018-12-03T02:04:09.394Z,13.67
2018-12-03T02:05:09.145Z,13.68
2018-12-03T02:06:09.177Z,13.7
2018-12-03T02:07:09.460Z,13.68
2018-12-03T02:08:09.208Z,13.68
2018-12-03T02:09:09.247Z,13.67
2018-12-03T02:10:09.782Z,13.62
2018-12-03T02:11:09.278Z,13.68
2018-12-03T02:12:09.563Z,13.59
2018-12-03T02:13:09.833Z,13.62
2018-12-03T02:14:09.356Z,13.63
2018-12-03T02:15:09.364Z,13.68
2018-12-03T02:16:09.639Z,13.68
2018-12-03T02:17:09.660Z,13.57
2018-12-03T02:18:09.743Z,13.72
2018-12-03T02:19:09.460Z,13.65
2018-12-03T02:20:09.723Z,13.62
2018-12-03T02:21:09.748Z,13.52
2018-12-03T02:22:09.784Z,13.65
2018-12-03T02:23:09.543Z,13.6
2018-12-03T02:24:09.808Z,13.68
2018-12-03T02:25:10.101Z,13.67
2018-12-03T02:26:09.860Z,13.65
2018-12-03T02:27:09.618Z,13.63
2018-12-03T02:28:09.648Z,13.59
2018-12-03T02:29:09.656Z,13.63
2018-12-03T02:30:09.698Z,13.67
2018-12-03T02:31:09.965Z,13.68
2018-12-03T02:32:10.258Z,13.65
2018-12-03T02:33:09.999Z,13.71
2018-12-03T02:34:10.292Z,13.59
2018-12-03T02:35:09.814Z,13.63
2018-12-03T02:36:10.067Z,13.56
2018-12-03T02:37:10.103Z,13.65
2018-12-03T02:38:10.121Z,13.67
2018-12-03T02:39:10.141Z,13.68
2018-12-03T02:40:10.213Z,13.68
2018-12-03T02:41:10.431Z,13.67
2018-12-03T02:42:10.449Z,13.57
2018-12-03T02:43:10.480Z,13.6
2018-12-03T02:44:10.255Z,13.65
2018-12-03T02:45:10.520Z,13.62
2018-12-03T02:46:10.276Z,13.59
2018-12-03T02:47:10.304Z,13.67
2018-12-03T02:48:10.613Z,13.68
2018-12-03T02:49:10.086Z,13.68
2018-12-03T02:50:10.358Z,13.63
2018-12-03T02:51:10.128Z,13.67
2018-12-03T02:52:10.679Z,13.59
2018-12-03T02:53:10.169Z,13.62
2018-12-03T02:54:10.461Z,13.63
2018-12-03T02:55:10.753Z,13.59
2018-12-03T02:56:10.490Z,13.6
2018-12-03T02:57:10.523Z,13.68
2018-12-03T02:58:10.557Z,13.62
2018-12-03T02:59:10.561Z,13.6
2018-12-03T03:00:10.595Z,13.71
2018-12-03T03:01:10.354Z,13.62
2018-12-03T03:02:10.371Z,13.62
2018-12-03T03:03:10.646Z,13.62
2018-12-03T03:04:10.407Z,13.71
2018-12-03T03:05:10.440Z,13.67
2018-12-03T03:06:10.445Z,13.67
2018-12-03T03:07:10.726Z,13.7
2018-12-03T03:08:10.768Z,13.63
2018-12-03T03:09:10.775Z,13.67
2018-12-03T03:10:10.540Z,13.57
2018-12-03T03:11:10.813Z,13.53
2018-12-03T03:12:10.830Z,13.63
2018-12-03T03:13:10.593Z,13.68
2018-12-03T03:14:10.616Z,13.6
2018-12-03T03:15:10.930Z,13.63
2018-12-03T03:16:10.914Z,13.6
2018-12-03T03:17:10.939Z,13.59
2018-12-03T03:18:10.971Z,13.6
2018-12-03T03:19:11.260Z,13.63
2018-12-03T03:20:11.266Z,13.67
2018-12-03T03:21:11.280Z,13.63
2018-12-03T03:22:10.794Z,13.65
2018-12-03T03:23:11.069Z,13.57
2018-12-03T03:24:11.341Z,13.57
2018-12-03T03:25:11.399Z,13.67
2018-12-03T03:26:11.138Z,13.65
2018-12-03T03:27:11.416Z,13.54
2018-12-03T03:28:11.443Z,13.57
2018-12-03T03:29:11.457Z,13.62
2018-12-03T03:30:11.225Z,13.62
2018-12-03T03:31:11.240Z,13.54
2018-12-03T03:32:11.260Z,13.67
2018-12-03T03:33:11.317Z,13.67
2018-12-03T03:34:11.298Z,13.65
2018-12-03T03:35:11.594Z,13.65
2018-12-03T03:36:11.349Z,13.59
2018-12-03T03:37:11.371Z,13.68
2018-12-03T03:38:11.384Z,13.6
2018-12-03T03:39:11.423Z,13.62
2018-12-03T03:40:11.169Z,13.67
2018-12-03T03:41:11.445Z,13.67
2018-12-03T03:42:11.231Z,13.71
2018-12-03T03:43:11.234Z,13.59
2018-12-03T03:44:11.510Z,13.63
2018-12-03T03:45:11.292Z,13.54
2018-12-03T03:46:11.547Z,13.7
2018-12-03T03:47:11.328Z,13.65
2018-12-03T03:48:11.853Z,13.59
2018-12-03T03:49:11.652Z,13.63
2018-12-03T03:50:11.647Z,13.65
2018-12-03T03:51:11.410Z,13.7
2018-12-03T03:52:11.427Z,13.62
2018-12-03T03:53:11.965Z,13.7
2018-12-03T03:54:11.471Z,13.67
2018-12-03T03:55:11.511Z,13.67
2018-12-03T03:56:11.771Z,13.63
2018-12-03T03:57:11.790Z,13.59
2018-12-03T03:58:11.823Z,13.54
2018-12-03T03:59:11.828Z,13.62
2018-12-03T04:00:11.911Z,13.56
2018-12-03T04:01:12.141Z,13.71
2018-12-03T04:02:11.895Z,13.67
2018-12-03T04:03:11.651Z,13.67
2018-12-03T04:04:11.675Z,13.67
2018-12-03T04:05:11.710Z,13.59
2018-12-03T04:06:12.247Z,13.65
2018-12-03T04:07:11.748Z,13.57
2018-12-03T04:08:11.762Z,13.6
2018-12-03T04:09:12.294Z,13.59
2018-12-03T04:10:11.806Z,13.72
2018-12-03T04:11:12.097Z,13.68
2018-12-03T04:12:12.120Z,13.68
2018-12-03T04:13:12.149Z,13.65
2018-12-03T04:14:12.424Z,13.59
2018-12-03T04:15:12.451Z,13.6
2018-12-03T04:16:12.441Z,13.63
2018-12-03T04:17:12.207Z,13.67
2018-12-03T04:18:12.226Z,13.65
2018-12-03T04:19:12.003Z,13.6
2018-12-03T04:20:12.553Z,13.63
2018-12-03T04:21:12.302Z,13.57
2018-12-03T04:22:12.063Z,13.68
2018-12-03T04:23:12.073Z,13.67
2018-12-03T04:24:12.380Z,13.7
2018-12-03T04:25:12.121Z,13.68
2018-12-03T04:26:12.405Z,13.54
2018-12-03T04:27:12.436Z,13.67
2018-12-03T04:28:12.199Z,13.67
2018-12-03T04:29:12.213Z,13.62
2018-12-03T04:30:12.502Z,13.65
2018-12-03T04:31:12.509Z,13.63
2018-12-03T04:32:12.276Z,13.67
2018-12-03T04:33:12.558Z,13.63
2018-12-03T04:34:12.596Z,13.6
2018-12-03T04:35:12.857Z,13.62
2018-12-03T04:36:12.868Z,13.53
2018-12-03T04:37:12.652Z,13.6
2018-12-03T04:38:12.415Z,13.72
2018-12-03T04:39:12.436Z,13.72
2018-12-03T04:40:12.446Z,13.53
2018-12-03T04:41:12.727Z,13.62
2018-12-03T04:42:12.485Z,13.57
2018-12-03T04:43:13.020Z,13.63
2018-12-03T04:44:12.786Z,13.6
2018-12-03T04:45:12.550Z,13.63
2018-12-03T04:46:12.577Z,13.68
2018-12-03T04:47:12.594Z,13.62
2018-12-03T04:48:12.861Z,13.68
2018-12-03T04:49:12.635Z,13.72
2018-12-03T04:50:12.646Z,13.67
2018-12-03T04:51:13.197Z,13.63
2018-12-03T04:52:12.955Z,13.6
2018-12-03T04:53:12.977Z,13.71
2018-12-03T04:54:12.742Z,13.67
2018-12-03T04:55:12.778Z,13.65
2018-12-03T04:56:13.293Z,13.65
2018-12-03T04:57:12.826Z,13.62
2018-12-03T04:58:13.343Z,13.75
2018-12-03T04:59:13.359Z,13.71
2018-12-03T05:00:13.382Z,13.7
2018-12-03T05:01:13.400Z,13.65
2018-12-03T05:02:13.170Z,13.65
2018-12-03T05:03:12.944Z,13.6
2018-12-03T05:04:12.958Z,13.68
2018-12-03T05:05:13.227Z,13.62
2018-12-03T05:06:12.990Z,13.75
2018-12-03T05:07:13.070Z,13.71
2018-12-03T05:08:13.030Z,13.68
2018-12-03T05:09:13.318Z,13.6
2018-12-03T05:10:13.652Z,13.62
2018-12-03T05:11:13.363Z,13.68
2018-12-03T05:12:13.123Z,13.67
2018-12-03T05:13:13.146Z,13.72
2018-12-03T05:14:13.435Z,13.67
2018-12-03T05:15:13.442Z,13.65
2018-12-03T05:16:13.735Z,13.68
2018-12-03T05:17:13.505Z,13.62
2018-12-03T05:18:13.523Z,13.6
2018-12-03T05:19:13.526Z,13.65
2018-12-03T05:20:13.817Z,13.65
2018-12-03T05:21:13.335Z,13.65
2018-12-03T05:22:13.597Z,13.63
2018-12-03T05:23:13.615Z,13.59
2018-12-03T05:24:13.645Z,13.56
2018-12-03T05:25:18.900Z,13.56
2018-12-03T05:26:13.672Z,13.46
2018-12-03T05:27:13.706Z,13.56
2018-12-03T05:28:13.459Z,13.63
2018-12-03T05:29:13.734Z,13.5
2018-12-03T05:30:13.765Z,13.54
2018-12-03T05:31:14.080Z,13.6
2018-12-03T05:32:13.798Z,13.49
2018-12-03T05:33:13.845Z,13.5
2018-12-03T05:34:13.594Z,13.5
2018-12-03T05:35:13.884Z,13.47
2018-12-03T05:36:13.636Z,13.47
2018-12-03T05:37:14.170Z,13.47
2018-12-03T05:38:13.930Z,13.44
2018-12-03T05:39:13.958Z,13.41
2018-12-03T05:40:13.722Z,13.39
2018-12-03T05:41:13.738Z,13.39
2018-12-03T05:42:13.763Z,13.31
2018-12-03T05:43:14.059Z,13.31
2018-12-03T05:44:14.064Z,13.3
2018-12-03T05:45:14.356Z,13.2
2018-12-03T05:46:14.107Z,13.27
2018-12-03T05:47:13.865Z,13.2
2018-12-03T05:48:13.901Z,13.3
2018-12-03T05:49:14.164Z,13.15
2018-12-03T05:50:14.456Z,13.16
2018-12-03T05:51:14.216Z,13.08
2018-12-03T05:52:14.487Z,13.18
2018-12-03T05:53:14.009Z,13.16
2018-12-03T05:54:14.608Z,13.11
2018-12-03T05:55:14.042Z,13.13
2018-12-03T05:56:14.067Z,13.09
2018-12-03T05:57:14.082Z,13.11
2018-12-03T05:58:14.103Z,13.05
2018-12-03T05:59:14.119Z,13.09
2018-12-03T06:00:14.411Z,13.03
2018-12-03T06:01:14.162Z,13.03
2018-12-03T06:02:14.456Z,13.05
2018-12-03T06:03:14.221Z,12.95
2018-12-03T06:04:14.743Z,13.03
2018-12-03T06:05:14.249Z,12.98
2018-12-03T06:06:14.269Z,12.95
2018-12-03T06:07:14.559Z,13
2018-12-03T06:08:14.568Z,12.94
2018-12-03T06:09:14.597Z,13
2018-12-03T06:10:14.629Z,12.94
2018-12-03T06:11:14.636Z,12.93
2018-12-03T06:12:14.670Z,12.95
2018-12-03T06:13:14.686Z,12.94
2018-12-03T06:14:14.443Z,12.9
2018-12-03T06:15:14.720Z,12.9
2018-12-03T06:16:15.000Z,12.91
2018-12-03T06:17:14.779Z,12.91
2018-12-03T06:18:14.779Z,12.91
2018-12-03T06:19:14.811Z,12.85
2018-12-03T06:20:14.571Z,12.86
2018-12-03T06:21:14.850Z,12.79
2018-12-03T06:22:14.619Z,12.78
2018-12-03T06:23:14.888Z,12.78
2018-12-03T06:24:14.663Z,12.93
2018-12-03T06:25:15.210Z,12.87
2018-12-03T06:26:14.704Z,12.86
2018-12-03T06:27:14.971Z,12.76
2018-12-03T06:28:14.756Z,12.8
2018-12-03T06:29:14.775Z,12.8
2018-12-03T06:30:15.045Z,12.85
2018-12-03T06:31:15.061Z,12.8
2018-12-03T06:32:15.118Z,12.82
2018-12-03T06:33:14.842Z,12.68
2018-12-03T06:34:15.143Z,12.82
2018-12-03T06:35:14.888Z,12.72
2018-12-03T06:36:15.163Z,12.73
2018-12-03T06:37:15.195Z,12.79
2018-12-03T06:38:19.792Z,12.76
2018-12-03T06:39:15.229Z,12.7
2018-12-03T06:40:15.265Z,12.68
2018-12-03T06:41:15.553Z,12.75
2018-12-03T06:42:15.038Z,12.73
2018-12-03T06:43:15.334Z,12.62
2018-12-03T06:44:15.333Z,12.67
2018-12-03T06:45:15.111Z,12.64
2018-12-03T06:46:15.398Z,12.68
2018-12-03T06:47:15.402Z,12.7
2018-12-03T06:48:15.175Z,12.61
2018-12-03T06:49:15.186Z,12.65
2018-12-03T06:50:15.476Z,12.73
2018-12-03T06:51:15.493Z,12.78
2018-12-03T06:52:15.257Z,12.58
2018-12-03T06:53:15.281Z,12.75
2018-12-03T06:54:15.819Z,12.72
2018-12-03T06:55:15.868Z,12.7
2018-12-03T06:56:15.598Z,12.68
2018-12-03T06:57:15.878Z,12.68
2018-12-03T06:58:15.634Z,12.65
2018-12-03T06:59:15.937Z,12.58
2018-12-03T07:00:15.949Z,12.67
2018-12-03T07:01:15.703Z,12.61
2018-12-03T07:02:15.475Z,12.58
2018-12-03T07:03:15.481Z,12.72
2018-12-03T07:04:15.758Z,12.68
2018-12-03T07:05:15.785Z,12.68
2018-12-03T07:06:15.815Z,12.7
2018-12-03T07:07:16.080Z,12.68
2018-12-03T07:08:15.588Z,12.7
2018-12-03T07:09:15.872Z,12.68
2018-12-03T07:10:15.904Z,12.79
2018-12-03T07:11:15.657Z,12.76
2018-12-03T07:12:16.195Z,12.85
2018-12-03T07:13:15.960Z,12.8
2018-12-03T07:14:15.972Z,12.82
2018-12-03T07:15:15.757Z,12.94
2018-12-03T07:16:16.013Z,12.91
2018-12-03T07:17:17.459Z,12.94
2018-12-03T07:18:16.056Z,12.97
2018-12-03T07:19:15.830Z,13
2018-12-03T07:20:16.366Z,13.03
2018-12-03T07:21:16.119Z,13.01
2018-12-03T07:22:16.154Z,13
2018-12-03T07:23:16.215Z,13
2018-12-03T07:24:16.442Z,13.03
2018-12-03T07:25:15.945Z,13.03
2018-12-03T07:26:16.237Z,13.01
2018-12-03T07:27:15.994Z,13.01
2018-12-03T07:28:16.277Z,13
2018-12-03T07:29:16.056Z,13.04
2018-12-03T07:30:16.327Z,13.05
2018-12-03T07:31:16.077Z,13.09
2018-12-03T07:32:16.633Z,13.01
2018-12-03T07:33:16.111Z,12.98
2018-12-03T07:34:16.142Z,13.01
2018-12-03T07:35:16.168Z,13.05
2018-12-03T07:36:16.695Z,13.01
2018-12-03T07:37:16.455Z,13.03
2018-12-03T07:38:16.736Z,12.98
2018-12-03T07:39:16.241Z,12.94
2018-12-03T07:40:16.516Z,13.01
2018-12-03T07:41:16.288Z,12.97
2018-12-03T07:42:16.565Z,13.03
2018-12-03T07:43:16.337Z,13
2018-12-03T07:44:16.619Z,12.93
2018-12-03T07:45:16.884Z,13.01
2018-12-03T07:46:16.408Z,13
2018-12-03T07:47:16.408Z,13.01
2018-12-03T07:48:16.961Z,13.03
2018-12-03T07:49:16.714Z,13.01
2018-12-03T07:50:16.999Z,13.05
2018-12-03T07:51:16.748Z,13.01
2018-12-03T07:52:17.044Z,13.03
2018-12-03T07:53:16.535Z,13.08
2018-12-03T07:54:17.518Z,13.09
2018-12-03T07:55:16.586Z,13.05
2018-12-03T07:56:16.873Z,13.13
2018-12-03T07:57:16.619Z,13.04
2018-12-03T07:58:16.644Z,13.09
2018-12-03T07:59:16.940Z,13.13
2018-12-03T08:00:16.695Z,13.12
2018-12-03T08:01:16.711Z,13.19
2018-12-03T08:02:16.733Z,13.15
2018-12-03T08:03:17.277Z,13.18
2018-12-03T08:04:17.034Z,13.2
2018-12-03T08:05:17.057Z,13.22
2018-12-03T08:06:17.068Z,13.23
2018-12-03T08:07:17.091Z,13.2
2018-12-03T08:08:16.868Z,13.25
2018-12-03T08:09:17.138Z,13.15
2018-12-03T08:10:17.425Z,13.37
2018-12-03T08:11:17.177Z,13.27
2018-12-03T08:12:17.457Z,13.3
2018-12-03T08:13:17.480Z,13.23
2018-12-03T08:14:16.988Z,13.28
2018-12-03T08:15:17.526Z,13.27
2018-12-03T08:16:17.555Z,13.27
2018-12-03T08:17:17.304Z,13.25
2018-12-03T08:18:17.320Z,13.23
2018-12-03T08:19:17.362Z,13.39
2018-12-03T08:20:17.379Z,13.25
2018-12-03T08:21:17.391Z,13.41
2018-12-03T08:22:17.663Z,13.3
2018-12-03T08:23:17.179Z,13.25
2018-12-03T08:24:17.458Z,13.35
2018-12-03T08:25:17.474Z,13.38
2018-12-03T08:26:17.243Z,13.42
2018-12-03T08:27:17.254Z,13.28
2018-12-03T08:28:17.283Z,13.41
2018-12-03T08:29:17.571Z,13.41
2018-12-03T08:30:17.619Z,13.44
2018-12-03T08:31:17.875Z,13.41
2018-12-03T08:32:17.638Z,13.39
2018-12-03T08:33:17.395Z,13.37
2018-12-03T08:34:17.667Z,13.35
2018-12-03T08:35:17.688Z,13.47
2018-12-03T08:36:17.711Z,13.42
2018-12-03T08:37:17.481Z,13.44
2018-12-03T08:38:17.770Z,13.44
2018-12-03T08:39:17.776Z,13.42
2018-12-03T08:40:17.543Z,13.44
2018-12-03T08:41:18.070Z,13.44
2018-12-03T08:42:17.837Z,13.47
2018-12-03T08:43:17.854Z,13.39
2018-12-03T08:44:17.898Z,13.59
2018-12-03T08:45:17.650Z,13.49
2018-12-03T08:46:17.664Z,13.5
2018-12-03T08:47:18.199Z,13.59
2018-12-03T08:48:18.217Z,13.62
2018-12-03T08:49:18.846Z,13.56
2018-12-03T08:50:18.282Z,13.59
2018-12-03T08:51:18.032Z,13.56
2018-12-03T08:52:18.051Z,13.53
2018-12-03T08:53:17.823Z,13.53
2018-12-03T08:54:17.841Z,13.59
2018-12-03T08:55:18.120Z,13.57
2018-12-03T08:56:18.193Z,13.57
2018-12-03T08:57:17.892Z,13.68
2018-12-03T08:58:17.925Z,13.54
2018-12-03T08:59:18.192Z,13.6
2018-12-03T09:00:18.587Z,13.62
2018-12-03T09:01:17.977Z,13.56
2018-12-03T09:02:18.538Z,13.57
2018-12-03T09:03:18.550Z,13.54
2018-12-03T09:04:18.561Z,13.52
2018-12-03T09:05:18.319Z,13.57
2018-12-03T09:06:18.358Z,13.54
2018-12-03T09:07:18.372Z,13.57
2018-12-03T09:08:18.657Z,13.57
2018-12-03T09:09:18.677Z,13.56
2018-12-03T09:10:18.459Z,13.49
2018-12-03T09:11:18.205Z,13.56
2018-12-03T09:12:18.470Z,13.46
2018-12-03T09:13:18.504Z,13.44
2018-12-03T09:14:18.253Z,13.47
2018-12-03T09:15:18.274Z,13.41
2018-12-03T09:16:18.574Z,13.56
2018-12-03T09:17:18.327Z,13.56
2018-12-03T09:18:18.601Z,13.49
2018-12-03T09:19:18.619Z,13.56
2018-12-03T09:20:18.388Z,13.39
2018-12-03T09:21:18.954Z,13.42
2018-12-03T09:22:18.434Z,13.54
2018-12-03T09:23:18.981Z,13.49
2018-12-03T09:24:18.723Z,13.49
2018-12-03T09:25:18.753Z,13.53
2018-12-03T09:26:18.766Z,13.52
2018-12-03T09:27:18.549Z,13.47
2018-12-03T09:28:19.072Z,13.6
2018-12-03T09:29:19.089Z,13.42
2018-12-03T09:30:18.861Z,13.59
2018-12-03T09:31:19.133Z,13.53
2018-12-03T09:32:18.903Z,13.59
2018-12-03T09:33:18.919Z,13.42
2018-12-03T09:34:19.211Z,13.41
2018-12-03T09:35:18.962Z,13.56
2018-12-03T09:36:18.988Z,13.5
2018-12-03T09:37:18.746Z,13.62
2018-12-03T09:38:19.041Z,13.5
2018-12-03T09:39:18.788Z,13.57
2018-12-03T09:40:19.084Z,13.57
2018-12-03T09:41:19.098Z,13.62
2018-12-03T09:42:19.118Z,13.62
2018-12-03T09:43:19.122Z,13.56
2018-12-03T09:44:19.157Z,13.57
2018-12-03T09:45:18.915Z,13.72
2018-12-03T09:46:19.451Z,13.68
2018-12-03T09:47:19.230Z,13.71
2018-12-03T09:48:19.492Z,13.72
2018-12-03T09:49:18.999Z,13.68
2018-12-03T09:50:19.295Z,13.72
2018-12-03T09:51:19.311Z,13.68
2018-12-03T09:52:19.063Z,13.72
2018-12-03T09:53:19.095Z,13.71
2018-12-03T09:54:19.378Z,13.72
2018-12-03T09:55:19.384Z,13.65
2018-12-03T09:56:19.677Z,13.7
2018-12-03T09:57:19.695Z,13.6
2018-12-03T09:58:19.196Z,13.56
2018-12-03T09:59:19.211Z,13.56
2018-12-03T10:00:19.492Z,13.63
2018-12-03T10:01:19.278Z,13.6
2018-12-03T10:02:19.533Z,13.57
2018-12-03T10:03:19.570Z,13.56
2018-12-03T10:04:19.315Z,13.57
2018-12-03T10:05:19.596Z,13.67
2018-12-03T10:06:19.361Z,13.67
2018-12-03T10:07:19.638Z,13.67
2018-12-03T10:08:19.673Z,13.75
2018-12-03T10:09:19.941Z,13.79
2018-12-03T10:10:19.717Z,13.72
2018-12-03T10:11:20.007Z,13.75
2018-12-03T10:12:22.820Z,13.9
2018-12-03T10:13:19.766Z,13.86
2018-12-03T10:14:19.788Z,13.86
2018-12-03T10:15:19.558Z,13.89
2018-12-03T10:16:19.571Z,13.95
2018-12-03T10:17:19.861Z,13.97
2018-12-03T10:18:20.150Z,13.99
2018-12-03T10:19:19.906Z,14.03
2018-12-03T10:20:19.917Z,14.04
2018-12-03T10:21:19.944Z,14.03
2018-12-03T10:22:19.704Z,13.97
2018-12-03T10:23:19.986Z,14.07
2018-12-03T10:24:20.006Z,14.11
2018-12-03T10:25:20.036Z,14.1
2018-12-03T10:26:19.805Z,14.14
2018-12-03T10:27:19.804Z,14.1
2018-12-03T10:28:20.365Z,14.14
2018-12-03T10:29:20.336Z,14.14
2018-12-03T10:30:20.394Z,14.18
2018-12-03T10:31:19.894Z,14.17
2018-12-03T10:32:19.919Z,14.17
2018-12-03T10:33:20.463Z,14.17
2018-12-03T10:34:20.219Z,14.22
2018-12-03T10:35:20.243Z,14.18
2018-12-03T10:36:20.020Z,14.17
2018-12-03T10:37:20.025Z,14.15
2018-12-03T10:38:20.308Z,14.18
2018-12-03T10:39:20.591Z,14.17
2018-12-03T10:40:20.090Z,14.15
2018-12-03T10:41:20.360Z,14.17
2018-12-03T10:42:20.406Z,14.23
2018-12-03T10:43:20.429Z,14.2
2018-12-03T10:44:20.687Z,14.15
2018-12-03T10:45:25.942Z,14.25
2018-12-03T10:46:20.221Z,14.18
2018-12-03T10:47:20.506Z,14.23
2018-12-03T10:48:20.786Z,14.28
2018-12-03T10:49:20.289Z,14.15
2018-12-03T10:50:24.722Z,14.15
2018-12-03T10:51:20.844Z,14.17
2018-12-03T10:52:20.613Z,14.18
2018-12-03T10:53:20.617Z,14.23
2018-12-03T10:54:20.654Z,14.17
2018-12-03T10:55:20.418Z,14.12
2018-12-03T10:56:21.957Z,14.12
2018-12-03T10:57:20.705Z,14.08
2018-12-03T10:58:20.742Z,14.14
2018-12-03T10:59:20.502Z,14.1
2018-12-03T11:00:20.778Z,14.08
2018-12-03T11:01:21.063Z,14
2018-12-03T11:02:20.566Z,14
2018-12-03T11:03:21.104Z,13.96
2018-12-03T11:04:20.611Z,14
2018-12-03T11:05:20.640Z,13.92
2018-12-03T11:06:20.650Z,14
2018-12-03T11:07:20.939Z,13.97
2018-12-03T11:08:21.208Z,13.93
2018-12-03T11:09:20.964Z,13.92
2018-12-03T11:10:20.741Z,13.86
2018-12-03T11:11:20.754Z,13.96
2018-12-03T11:12:21.034Z,13.97
2018-12-03T11:13:20.792Z,13.9
2018-12-03T11:14:21.085Z,14
2018-12-03T11:15:21.105Z,13.93
2018-12-03T11:16:20.861Z,13.96
2018-12-03T11:17:21.145Z,13.93
2018-12-03T11:18:20.900Z,13.97
2018-12-03T11:19:20.929Z,14.08
2018-12-03T11:20:20.973Z,14.03
2018-12-03T11:21:21.802Z,14.07
2018-12-03T11:22:21.251Z,14.05
2018-12-03T11:23:21.269Z,14
2018-12-03T11:24:21.026Z,13.99
2018-12-03T11:25:21.313Z,13.97
2018-12-03T11:26:21.602Z,13.99
2018-12-03T11:27:21.349Z,14.03
2018-12-03T11:28:21.634Z,13.99
2018-12-03T11:29:21.394Z,14.04
2018-12-03T11:30:21.695Z,14.03
2018-12-03T11:31:21.437Z,14.1
2018-12-03T11:32:21.199Z,14.14
2018-12-03T11:33:21.485Z,14.15
2018-12-03T11:34:21.254Z,14.17
2018-12-03T11:35:21.798Z,14.22
2018-12-03T11:36:21.551Z,14.18
2018-12-03T11:37:21.573Z,14.22
2018-12-03T11:38:21.336Z,14.25
2018-12-03T11:39:21.870Z,14.2
2018-12-03T11:40:21.377Z,14.2
2018-12-03T11:41:21.394Z,14.18
2018-12-03T11:42:21.419Z,14.18
2018-12-03T11:43:21.716Z,14.33
2018-12-03T11:44:21.456Z,14.29
2018-12-03T11:45:21.748Z,14.17
2018-12-03T11:46:21.767Z,14.18
2018-12-03T11:47:21.803Z,14.25
2018-12-03T11:48:22.080Z,14.28
2018-12-03T11:49:21.821Z,14.23
2018-12-03T11:50:21.594Z,14.28
2018-12-03T11:51:22.155Z,14.29
2018-12-03T11:52:22.193Z,14.23
2018-12-03T11:53:23.054Z,14.17
2018-12-03T11:54:21.927Z,14.23
2018-12-03T11:55:22.220Z,14.3
2018-12-03T11:56:21.969Z,14.18
2018-12-03T11:57:21.735Z,14.3
2018-12-03T11:58:22.028Z,14.32
2018-12-03T11:59:22.043Z,14.32
2018-12-03T12:00:21.814Z,14.3
2018-12-03T12:01:22.085Z,14.26
2018-12-03T12:02:22.106Z,14.18
2018-12-03T12:03:22.129Z,14.28
2018-12-03T12:04:21.895Z,14.29
2018-12-03T12:05:21.920Z,14.25
2018-12-03T12:06:22.209Z,14.35
2018-12-03T12:07:22.222Z,14.26
2018-12-03T12:08:22.890Z,14.28
2018-12-03T12:09:25.643Z,14.25
2018-12-03T12:10:22.539Z,14.29
2018-12-03T12:11:22.299Z,14.35
2018-12-03T12:12:22.083Z,14.32
2018-12-03T12:13:22.343Z,14.29
2018-12-03T12:14:22.366Z,14.33
2018-12-03T12:15:22.129Z,14.32
2018-12-03T12:16:22.555Z,14.3
2018-12-03T12:17:22.431Z,14.32
2018-12-03T12:18:22.207Z,14.33
2018-12-03T12:19:22.484Z,14.33
2018-12-03T12:20:22.766Z,14.41
2018-12-03T12:21:22.254Z,14.36
2018-12-03T12:22:22.539Z,14.29
2018-12-03T12:23:22.292Z,14.43
2018-12-03T12:24:22.326Z,14.37
2018-12-03T12:25:22.863Z,14.4
2018-12-03T12:26:22.370Z,14.35
2018-12-03T12:27:22.652Z,14.29
2018-12-03T12:28:22.679Z,14.33
2018-12-03T12:29:22.939Z,14.32
2018-12-03T12:30:22.463Z,14.25
2018-12-03T12:31:22.725Z,14.33
2018-12-03T12:32:23.010Z,14.29
2018-12-03T12:33:22.583Z,14.3
2018-12-03T12:34:22.531Z,14.32
2018-12-03T12:35:22.568Z,14.29
2018-12-03T12:36:23.096Z,14.18
2018-12-03T12:37:23.112Z,14.18
2018-12-03T12:38:22.615Z,14.25
2018-12-03T12:39:22.642Z,14.17
2018-12-03T12:40:22.667Z,14.23
2018-12-03T12:41:22.940Z,14.14
2018-12-03T12:42:22.962Z,14.12
2018-12-03T12:43:22.994Z,14.12
2018-12-03T12:44:22.763Z,14.04
2018-12-03T12:45:22.768Z,14.08
2018-12-03T12:46:23.056Z,14.03
2018-12-03T12:47:23.338Z,14.03
2018-12-03T12:48:23.098Z,14.1
2018-12-03T12:49:23.117Z,14.04
2018-12-03T12:50:23.136Z,14.04
2018-12-03T12:51:23.409Z,14.05
2018-12-03T12:52:23.435Z,14.08
2018-12-03T12:53:22.948Z,14.05
2018-12-03T12:54:23.222Z,14.08
2018-12-03T12:55:22.982Z,14
2018-12-03T12:56:23.017Z,14.05
2018-12-03T12:57:23.281Z,14.07